sensor_id;sensor_type;location;lat;lon;timestamp;P1;durP1;ratioP1;P2;durP2;ratioP2
48849;SDS011;63210;53.370;6.770;2023-02-01T00:01:07;31.02;;;4.32;;
48849;SDS011;63210;53.370;6.770;2023-02-01T00:03:33;26.20;;;4.25;;
48849;SDS011;63210;53.370;6.770;2023-02-01T00:06:01;29.85;;;5.20;;
48849;SDS011;63210;53.370;6.770;2023-02-01T00:08:26;29.90;;;4.70;;
48849;SDS011;63210;53.370;6.770;2023-02-01T00:11:03;33.67;;;5.03;;
48849;SDS011;63210;53.370;6.770;2023-02-01T00:13:29;23.05;;;4.78;;
48849;SDS011;63210;53.370;6.770;2023-02-01T00:16:05;43.13;;;4.85;;
48849;SDS011;63210;53.370;6.770;2023-02-01T00:18:30;22.08;;;4.45;;
48849;SDS011;63210;53.370;6.770;2023-02-01T00:20:56;23.13;;;4.13;;
48849;SDS011;63210;53.370;6.770;2023-02-01T00:23:21;15.02;;;3.35;;
48849;SDS011;63210;53.370;6.770;2023-02-01T00:25:47;31.90;;;4.50;;
48849;SDS011;63210;53.370;6.770;2023-02-01T00:28:12;29.33;;;4.00;;
48849;SDS011;63210;53.370;6.770;2023-02-01T00:30:38;28.17;;;4.07;;
48849;SDS011;63210;53.370;6.770;2023-02-01T00:33:03;16.50;;;2.75;;
48849;SDS011;63210;53.370;6.770;2023-02-01T00:35:29;22.90;;;4.05;;
48849;SDS011;63210;53.370;6.770;2023-02-01T00:37:57;36.50;;;5.47;;
48849;SDS011;63210;53.370;6.770;2023-02-01T00:40:24;28.48;;;3.70;;
48849;SDS011;63210;53.370;6.770;2023-02-01T00:42:53;23.00;;;3.95;;
48849;SDS011;63210;53.370;6.770;2023-02-01T00:45:19;33.38;;;5.03;;
48849;SDS011;63210;53.370;6.770;2023-02-01T00:47:47;26.65;;;3.92;;
48849;SDS011;63210;53.370;6.770;2023-02-01T00:50:13;22.70;;;3.63;;
48849;SDS011;63210;53.370;6.770;2023-02-01T00:52:41;28.77;;;3.45;;
48849;SDS011;63210;53.370;6.770;2023-02-01T00:55:06;26.27;;;4.35;;
48849;SDS011;63210;53.370;6.770;2023-02-01T00:57:32;20.50;;;4.57;;
48849;SDS011;63210;53.370;6.770;2023-02-01T01:00:00;23.35;;;4.22;;
48849;SDS011;63210;53.370;6.770;2023-02-01T01:02:30;27.05;;;6.25;;
48849;SDS011;63210;53.370;6.770;2023-02-01T01:04:55;13.25;;;3.75;;
48849;SDS011;63210;53.370;6.770;2023-02-01T01:07:21;27.98;;;4.22;;
48849;SDS011;63210;53.370;6.770;2023-02-01T01:09:51;19.10;;;2.95;;
48849;SDS011;63210;53.370;6.770;2023-02-01T01:12:17;21.80;;;3.40;;
48849;SDS011;63210;53.370;6.770;2023-02-01T01:14:43;14.50;;;2.72;;
48849;SDS011;63210;53.370;6.770;2023-02-01T01:17:09;16.95;;;4.20;;
48849;SDS011;63210;53.370;6.770;2023-02-01T01:19:42;16.02;;;3.50;;
48849;SDS011;63210;53.370;6.770;2023-02-01T01:22:07;27.83;;;4.38;;
48849;SDS011;63210;53.370;6.770;2023-02-01T01:24:33;19.98;;;3.70;;
48849;SDS011;63210;53.370;6.770;2023-02-01T01:26:58;22.05;;;3.20;;
48849;SDS011;63210;53.370;6.770;2023-02-01T01:29:27;28.95;;;6.32;;
48849;SDS011;63210;53.370;6.770;2023-02-01T01:32:03;23.23;;;3.38;;
48849;SDS011;63210;53.370;6.770;2023-02-01T01:34:28;31.55;;;4.30;;
48849;SDS011;63210;53.370;6.770;2023-02-01T01:36:54;17.88;;;3.45;;
48849;SDS011;63210;53.370;6.770;2023-02-01T01:39:20;21.05;;;3.85;;
48849;SDS011;63210;53.370;6.770;2023-02-01T01:41:47;26.48;;;4.32;;
48849;SDS011;63210;53.370;6.770;2023-02-01T01:47:02;32.17;;;4.22;;
48849;SDS011;63210;53.370;6.770;2023-02-01T01:49:28;23.10;;;4.28;;
48849;SDS011;63210;53.370;6.770;2023-02-01T01:51:58;27.45;;;3.83;;
48849;SDS011;63210;53.370;6.770;2023-02-01T01:54:28;25.50;;;4.10;;
48849;SDS011;63210;53.370;6.770;2023-02-01T01:56:58;12.40;;;2.70;;
48849;SDS011;63210;53.370;6.770;2023-02-01T01:59:28;24.60;;;4.15;;
48849;SDS011;63210;53.370;6.770;2023-02-01T02:01:54;24.92;;;3.95;;
48849;SDS011;63210;53.370;6.770;2023-02-01T02:04:20;22.75;;;3.97;;
48849;SDS011;63210;53.370;6.770;2023-02-01T02:06:57;35.97;;;6.07;;
48849;SDS011;63210;53.370;6.770;2023-02-01T02:09:24;19.90;;;2.88;;
48849;SDS011;63210;53.370;6.770;2023-02-01T02:11:50;26.80;;;4.03;;
48849;SDS011;63210;53.370;6.770;2023-02-01T02:14:18;24.10;;;4.85;;
48849;SDS011;63210;53.370;6.770;2023-02-01T02:34:41;20.20;;;4.43;;
48849;SDS011;63210;53.370;6.770;2023-02-01T02:37:18;26.20;;;5.60;;
48849;SDS011;63210;53.370;6.770;2023-02-01T02:42:32;21.30;;;3.53;;
48849;SDS011;63210;53.370;6.770;2023-02-01T02:45:21;30.55;;;4.40;;
48849;SDS011;63210;53.370;6.770;2023-02-01T02:48:25;25.42;;;3.05;;
48849;SDS011;63210;53.370;6.770;2023-02-01T02:56:53;25.00;;;5.90;;
48849;SDS011;63210;53.370;6.770;2023-02-01T02:59:38;20.98;;;3.50;;
48849;SDS011;63210;53.370;6.770;2023-02-01T03:02:23;44.50;;;6.47;;
48849;SDS011;63210;53.370;6.770;2023-02-01T03:05:13;16.38;;;3.13;;
48849;SDS011;63210;53.370;6.770;2023-02-01T03:10:30;18.17;;;3.13;;
48849;SDS011;63210;53.370;6.770;2023-02-01T03:13:03;32.50;;;5.40;;
48849;SDS011;63210;53.370;6.770;2023-02-01T03:15:50;24.80;;;3.53;;
48849;SDS011;63210;53.370;6.770;2023-02-01T03:18:23;27.48;;;3.92;;
48849;SDS011;63210;53.370;6.770;2023-02-01T03:20:51;18.77;;;2.60;;
48849;SDS011;63210;53.370;6.770;2023-02-01T03:23:19;20.90;;;3.60;;
48849;SDS011;63210;53.370;6.770;2023-02-01T03:25:47;21.35;;;4.30;;
48849;SDS011;63210;53.370;6.770;2023-02-01T03:28:13;17.83;;;3.47;;
48849;SDS011;63210;53.370;6.770;2023-02-01T03:30:45;37.20;;;3.20;;
48849;SDS011;63210;53.370;6.770;2023-02-01T03:33:12;20.35;;;4.25;;
48849;SDS011;63210;53.370;6.770;2023-02-01T03:38:33;25.38;;;4.40;;
48849;SDS011;63210;53.370;6.770;2023-02-01T03:41:03;15.20;;;2.85;;
48849;SDS011;63210;53.370;6.770;2023-02-01T03:43:33;30.08;;;5.78;;
48849;SDS011;63210;53.370;6.770;2023-02-01T03:46:04;24.88;;;5.10;;
48849;SDS011;63210;53.370;6.770;2023-02-01T03:48:32;19.70;;;4.32;;
48849;SDS011;63210;53.370;6.770;2023-02-01T03:50:59;37.45;;;5.30;;
48849;SDS011;63210;53.370;6.770;2023-02-01T03:53:28;25.55;;;4.45;;
48849;SDS011;63210;53.370;6.770;2023-02-01T03:55:54;27.48;;;4.15;;
48849;SDS011;63210;53.370;6.770;2023-02-01T03:58:20;19.95;;;3.45;;
48849;SDS011;63210;53.370;6.770;2023-02-01T04:00:50;20.85;;;4.05;;
48849;SDS011;63210;53.370;6.770;2023-02-01T04:03:17;16.20;;;3.08;;
48849;SDS011;63210;53.370;6.770;2023-02-01T04:05:45;18.00;;;3.30;;
48849;SDS011;63210;53.370;6.770;2023-02-01T04:08:14;25.63;;;6.30;;
48849;SDS011;63210;53.370;6.770;2023-02-01T04:10:40;22.80;;;4.50;;
48849;SDS011;63210;53.370;6.770;2023-02-01T04:13:08;31.48;;;4.60;;
48849;SDS011;63210;53.370;6.770;2023-02-01T04:15:34;27.80;;;4.78;;
48849;SDS011;63210;53.370;6.770;2023-02-01T04:18:01;27.63;;;4.47;;
48849;SDS011;63210;53.370;6.770;2023-02-01T04:20:26;25.33;;;4.28;;
48849;SDS011;63210;53.370;6.770;2023-02-01T04:22:55;33.63;;;4.95;;
48849;SDS011;63210;53.370;6.770;2023-02-01T04:25:23;31.45;;;5.00;;
48849;SDS011;63210;53.370;6.770;2023-02-01T04:27:48;23.77;;;4.38;;
48849;SDS011;63210;53.370;6.770;2023-02-01T04:30:14;27.88;;;5.72;;
48849;SDS011;63210;53.370;6.770;2023-02-01T04:32:39;30.83;;;6.22;;
48849;SDS011;63210;53.370;6.770;2023-02-01T04:35:05;28.15;;;3.30;;
48849;SDS011;63210;53.370;6.770;2023-02-01T04:37:34;20.23;;;4.03;;
48849;SDS011;63210;53.370;6.770;2023-02-01T04:39:59;21.00;;;3.83;;
48849;SDS011;63210;53.370;6.770;2023-02-01T04:42:25;21.42;;;3.67;;
48849;SDS011;63210;53.370;6.770;2023-02-01T04:44:51;21.10;;;3.40;;
48849;SDS011;63210;53.370;6.770;2023-02-01T04:47:16;24.13;;;3.28;;
48849;SDS011;63210;53.370;6.770;2023-02-01T04:49:41;21.48;;;3.58;;
48849;SDS011;63210;53.370;6.770;2023-02-01T04:52:07;15.48;;;4.05;;
48849;SDS011;63210;53.370;6.770;2023-02-01T04:54:32;25.80;;;3.70;;
48849;SDS011;63210;53.370;6.770;2023-02-01T04:57:01;26.67;;;4.10;;
48849;SDS011;63210;53.370;6.770;2023-02-01T04:59:26;35.22;;;5.60;;
48849;SDS011;63210;53.370;6.770;2023-02-01T05:01:53;23.85;;;3.63;;
48849;SDS011;63210;53.370;6.770;2023-02-01T05:04:19;34.03;;;5.00;;
48849;SDS011;63210;53.370;6.770;2023-02-01T05:06:44;21.48;;;3.40;;
48849;SDS011;63210;53.370;6.770;2023-02-01T05:09:15;12.80;;;3.00;;
48849;SDS011;63210;53.370;6.770;2023-02-01T05:11:44;23.10;;;4.20;;
48849;SDS011;63210;53.370;6.770;2023-02-01T05:14:34;35.72;;;6.28;;
48849;SDS011;63210;53.370;6.770;2023-02-01T05:16:59;26.40;;;4.72;;
48849;SDS011;63210;53.370;6.770;2023-02-01T05:19:27;18.33;;;3.33;;
48849;SDS011;63210;53.370;6.770;2023-02-01T05:21:54;31.73;;;4.85;;
48849;SDS011;63210;53.370;6.770;2023-02-01T05:24:19;24.23;;;4.45;;
48849;SDS011;63210;53.370;6.770;2023-02-01T05:26:46;22.52;;;3.47;;
48849;SDS011;63210;53.370;6.770;2023-02-01T05:29:14;27.15;;;4.25;;
48849;SDS011;63210;53.370;6.770;2023-02-01T05:31:40;24.80;;;4.15;;
48849;SDS011;63210;53.370;6.770;2023-02-01T05:34:06;20.15;;;5.20;;
48849;SDS011;63210;53.370;6.770;2023-02-01T05:36:31;27.27;;;3.28;;
48849;SDS011;63210;53.370;6.770;2023-02-01T05:38:57;21.40;;;4.40;;
48849;SDS011;63210;53.370;6.770;2023-02-01T05:41:25;27.92;;;5.25;;
48849;SDS011;63210;53.370;6.770;2023-02-01T05:43:53;22.00;;;4.93;;
48849;SDS011;63210;53.370;6.770;2023-02-01T05:46:19;34.75;;;7.63;;
48849;SDS011;63210;53.370;6.770;2023-02-01T05:48:44;20.50;;;4.47;;
48849;SDS011;63210;53.370;6.770;2023-02-01T05:51:10;29.67;;;4.38;;
48849;SDS011;63210;53.370;6.770;2023-02-01T05:53:38;22.45;;;3.90;;
48849;SDS011;63210;53.370;6.770;2023-02-01T05:56:08;24.52;;;3.55;;
48849;SDS011;63210;53.370;6.770;2023-02-01T05:58:36;31.23;;;4.00;;
48849;SDS011;63210;53.370;6.770;2023-02-01T06:01:02;20.10;;;3.83;;
48849;SDS011;63210;53.370;6.770;2023-02-01T06:03:39;28.70;;;5.32;;
48849;SDS011;63210;53.370;6.770;2023-02-01T06:06:08;18.40;;;4.88;;
48849;SDS011;63210;53.370;6.770;2023-02-01T06:08:34;28.48;;;4.70;;
48849;SDS011;63210;53.370;6.770;2023-02-01T06:11:06;32.78;;;5.10;;
48849;SDS011;63210;53.370;6.770;2023-02-01T06:13:32;30.40;;;5.07;;
48849;SDS011;63210;53.370;6.770;2023-02-01T06:16:05;34.20;;;4.97;;
48849;SDS011;63210;53.370;6.770;2023-02-01T06:18:32;22.15;;;3.80;;
48849;SDS011;63210;53.370;6.770;2023-02-01T06:20:58;34.42;;;4.65;;
48849;SDS011;63210;53.370;6.770;2023-02-01T06:23:36;19.90;;;4.32;;
48849;SDS011;63210;53.370;6.770;2023-02-01T06:26:03;28.23;;;4.68;;
48849;SDS011;63210;53.370;6.770;2023-02-01T06:28:30;30.15;;;4.45;;
48849;SDS011;63210;53.370;6.770;2023-02-01T06:30:56;28.60;;;4.72;;
48849;SDS011;63210;53.370;6.770;2023-02-01T06:33:28;31.67;;;5.88;;
48849;SDS011;63210;53.370;6.770;2023-02-01T06:38:22;20.25;;;4.90;;
48849;SDS011;63210;53.370;6.770;2023-02-01T06:40:54;31.42;;;8.75;;
48849;SDS011;63210;53.370;6.770;2023-02-01T06:43:22;21.13;;;5.47;;
48849;SDS011;63210;53.370;6.770;2023-02-01T06:45:48;25.70;;;5.10;;
48849;SDS011;63210;53.370;6.770;2023-02-01T06:48:19;35.03;;;6.20;;
48849;SDS011;63210;53.370;6.770;2023-02-01T06:50:47;21.63;;;3.97;;
48849;SDS011;63210;53.370;6.770;2023-02-01T06:53:13;40.35;;;9.52;;
48849;SDS011;63210;53.370;6.770;2023-02-01T06:55:39;16.92;;;4.38;;
48849;SDS011;63210;53.370;6.770;2023-02-01T06:58:04;28.15;;;11.27;;
48849;SDS011;63210;53.370;6.770;2023-02-01T07:00:30;44.20;;;14.90;;
48849;SDS011;63210;53.370;6.770;2023-02-01T07:03:01;42.47;;;20.95;;
48849;SDS011;63210;53.370;6.770;2023-02-01T07:05:29;50.92;;;15.95;;
48849;SDS011;63210;53.370;6.770;2023-02-01T07:08:04;32.53;;;10.75;;
48849;SDS011;63210;53.370;6.770;2023-02-01T07:10:29;41.17;;;10.18;;
48849;SDS011;63210;53.370;6.770;2023-02-01T07:12:58;35.85;;;6.60;;
48849;SDS011;63210;53.370;6.770;2023-02-01T07:15:23;25.75;;;4.45;;
48849;SDS011;63210;53.370;6.770;2023-02-01T07:17:49;31.15;;;5.45;;
48849;SDS011;63210;53.370;6.770;2023-02-01T07:20:15;22.70;;;7.35;;
48849;SDS011;63210;53.370;6.770;2023-02-01T07:22:44;34.45;;;5.07;;
48849;SDS011;63210;53.370;6.770;2023-02-01T07:25:28;28.92;;;7.15;;
48849;SDS011;63210;53.370;6.770;2023-02-01T07:27:54;28.75;;;5.05;;
48849;SDS011;63210;53.370;6.770;2023-02-01T07:30:19;30.73;;;5.55;;
48849;SDS011;63210;53.370;6.770;2023-02-01T07:32:45;30.27;;;5.55;;
48849;SDS011;63210;53.370;6.770;2023-02-01T07:35:10;31.55;;;12.75;;
48849;SDS011;63210;53.370;6.770;2023-02-01T07:37:36;26.13;;;6.30;;
48849;SDS011;63210;53.370;6.770;2023-02-01T07:40:03;39.75;;;13.70;;
48849;SDS011;63210;53.370;6.770;2023-02-01T07:42:34;27.77;;;7.57;;
48849;SDS011;63210;53.370;6.770;2023-02-01T07:45:01;35.65;;;8.20;;
48849;SDS011;63210;53.370;6.770;2023-02-01T07:47:28;29.27;;;5.40;;
48849;SDS011;63210;53.370;6.770;2023-02-01T07:49:53;26.77;;;5.35;;
48849;SDS011;63210;53.370;6.770;2023-02-01T07:52:18;36.55;;;6.75;;
48849;SDS011;63210;53.370;6.770;2023-02-01T07:54:47;26.48;;;4.72;;
48849;SDS011;63210;53.370;6.770;2023-02-01T07:57:12;25.83;;;6.60;;
48849;SDS011;63210;53.370;6.770;2023-02-01T07:59:42;27.67;;;4.60;;
48849;SDS011;63210;53.370;6.770;2023-02-01T08:02:28;24.52;;;4.93;;
48849;SDS011;63210;53.370;6.770;2023-02-01T08:04:53;35.28;;;4.97;;
48849;SDS011;63210;53.370;6.770;2023-02-01T08:07:19;27.02;;;5.45;;
48849;SDS011;63210;53.370;6.770;2023-02-01T08:09:44;33.35;;;6.03;;
48849;SDS011;63210;53.370;6.770;2023-02-01T08:12:12;33.75;;;4.90;;
48849;SDS011;63210;53.370;6.770;2023-02-01T08:14:41;33.92;;;5.43;;
48849;SDS011;63210;53.370;6.770;2023-02-01T08:17:08;27.88;;;7.25;;
48849;SDS011;63210;53.370;6.770;2023-02-01T08:19:37;24.90;;;4.05;;
48849;SDS011;63210;53.370;6.770;2023-02-01T08:22:07;26.60;;;4.10;;
48849;SDS011;63210;53.370;6.770;2023-02-01T08:24:33;21.67;;;4.38;;
48849;SDS011;63210;53.370;6.770;2023-02-01T08:27:00;30.05;;;4.82;;
48849;SDS011;63210;53.370;6.770;2023-02-01T08:29:25;27.40;;;4.35;;
48849;SDS011;63210;53.370;6.770;2023-02-01T08:31:51;36.50;;;5.55;;
48849;SDS011;63210;53.370;6.770;2023-02-01T08:34:17;23.88;;;3.80;;
48849;SDS011;63210;53.370;6.770;2023-02-01T08:36:43;19.40;;;4.85;;
48849;SDS011;63210;53.370;6.770;2023-02-01T08:39:10;31.33;;;6.00;;
48849;SDS011;63210;53.370;6.770;2023-02-01T08:41:35;32.67;;;7.65;;
48849;SDS011;63210;53.370;6.770;2023-02-01T08:44:04;35.58;;;6.10;;
48849;SDS011;63210;53.370;6.770;2023-02-01T08:46:32;28.92;;;4.95;;
48849;SDS011;63210;53.370;6.770;2023-02-01T08:48:58;24.50;;;5.30;;
48849;SDS011;63210;53.370;6.770;2023-02-01T08:51:23;20.55;;;4.38;;
48849;SDS011;63210;53.370;6.770;2023-02-01T08:53:51;26.15;;;4.43;;
48849;SDS011;63210;53.370;6.770;2023-02-01T08:56:17;27.77;;;4.03;;
48849;SDS011;63210;53.370;6.770;2023-02-01T08:58:43;27.83;;;4.25;;
48849;SDS011;63210;53.370;6.770;2023-02-01T09:01:12;25.40;;;3.92;;
48849;SDS011;63210;53.370;6.770;2023-02-01T09:03:38;29.02;;;11.43;;
48849;SDS011;63210;53.370;6.770;2023-02-01T09:06:07;24.05;;;4.95;;
48849;SDS011;63210;53.370;6.770;2023-02-01T09:08:38;26.33;;;10.60;;
48849;SDS011;63210;53.370;6.770;2023-02-01T09:11:06;29.17;;;3.60;;
48849;SDS011;63210;53.370;6.770;2023-02-01T09:13:32;25.60;;;3.42;;
48849;SDS011;63210;53.370;6.770;2023-02-01T09:16:03;20.83;;;5.20;;
48849;SDS011;63210;53.370;6.770;2023-02-01T09:18:29;20.13;;;4.38;;
48849;SDS011;63210;53.370;6.770;2023-02-01T09:20:58;17.63;;;4.07;;
48849;SDS011;63210;53.370;6.770;2023-02-01T09:23:26;24.00;;;4.90;;
48849;SDS011;63210;53.370;6.770;2023-02-01T09:25:52;20.73;;;4.07;;
48849;SDS011;63210;53.370;6.770;2023-02-01T09:28:23;21.02;;;4.03;;
48849;SDS011;63210;53.370;6.770;2023-02-01T09:30:48;24.25;;;5.43;;
48849;SDS011;63210;53.370;6.770;2023-02-01T09:33:14;28.15;;;7.70;;
48849;SDS011;63210;53.370;6.770;2023-02-01T09:35:39;22.83;;;5.70;;
48849;SDS011;63210;53.370;6.770;2023-02-01T09:38:05;26.35;;;4.57;;
48849;SDS011;63210;53.370;6.770;2023-02-01T09:40:33;16.42;;;4.60;;
48849;SDS011;63210;53.370;6.770;2023-02-01T09:45:46;29.40;;;4.47;;
48849;SDS011;63210;53.370;6.770;2023-02-01T09:48:17;22.33;;;4.38;;
48849;SDS011;63210;53.370;6.770;2023-02-01T09:50:49;20.77;;;4.00;;
48849;SDS011;63210;53.370;6.770;2023-02-01T09:53:18;13.90;;;3.40;;
48849;SDS011;63210;53.370;6.770;2023-02-01T09:55:47;16.77;;;3.88;;
48849;SDS011;63210;53.370;6.770;2023-02-01T09:58:14;15.48;;;5.00;;
48849;SDS011;63210;53.370;6.770;2023-02-01T10:00:41;12.60;;;3.40;;
48849;SDS011;63210;53.370;6.770;2023-02-01T10:05:43;17.67;;;4.30;;
48849;SDS011;63210;53.370;6.770;2023-02-01T10:08:24;15.20;;;2.60;;
48849;SDS011;63210;53.370;6.770;2023-02-01T10:11:07;16.33;;;3.97;;
48849;SDS011;63210;53.370;6.770;2023-02-01T10:18:51;35.53;;;24.48;;
48849;SDS011;63210;53.370;6.770;2023-02-01T10:21:28;26.27;;;15.10;;
48849;SDS011;63210;53.370;6.770;2023-02-01T10:27:06;27.52;;;14.35;;
48849;SDS011;63210;53.370;6.770;2023-02-01T10:29:37;23.83;;;9.95;;
48849;SDS011;63210;53.370;6.770;2023-02-01T10:32:08;16.45;;;6.43;;
48849;SDS011;63210;53.370;6.770;2023-02-01T10:37:10;20.20;;;3.80;;
48849;SDS011;63210;53.370;6.770;2023-02-01T10:39:39;25.88;;;3.47;;
48849;SDS011;63210;53.370;6.770;2023-02-01T10:42:07;17.83;;;4.10;;
48849;SDS011;63210;53.370;6.770;2023-02-01T10:44:34;12.93;;;3.20;;
48849;SDS011;63210;53.370;6.770;2023-02-01T10:47:02;20.23;;;3.50;;
48849;SDS011;63210;53.370;6.770;2023-02-01T10:49:37;13.95;;;2.90;;
48849;SDS011;63210;53.370;6.770;2023-02-01T10:52:11;15.45;;;3.60;;
48849;SDS011;63210;53.370;6.770;2023-02-01T10:54:38;16.23;;;2.25;;
48849;SDS011;63210;53.370;6.770;2023-02-01T10:57:07;5.18;;;1.23;;
48849;SDS011;63210;53.370;6.770;2023-02-01T10:59:36;4.38;;;1.38;;
48849;SDS011;63210;53.370;6.770;2023-02-01T11:02:18;3.22;;;1.20;;
48849;SDS011;63210;53.370;6.770;2023-02-01T11:04:44;3.45;;;1.00;;
48849;SDS011;63210;53.370;6.770;2023-02-01T11:07:22;2.20;;;0.82;;
48849;SDS011;63210;53.370;6.770;2023-02-01T11:09:52;4.50;;;0.75;;
48849;SDS011;63210;53.370;6.770;2023-02-01T11:12:43;5.05;;;1.08;;
48849;SDS011;63210;53.370;6.770;2023-02-01T11:15:18;4.53;;;1.35;;
48849;SDS011;63210;53.370;6.770;2023-02-01T11:17:45;12.02;;;1.42;;
48849;SDS011;63210;53.370;6.770;2023-02-01T11:20:21;8.60;;;1.30;;
48849;SDS011;63210;53.370;6.770;2023-02-01T11:23:12;9.02;;;1.40;;
48849;SDS011;63210;53.370;6.770;2023-02-01T11:25:47;9.23;;;1.75;;
48849;SDS011;63210;53.370;6.770;2023-02-01T11:28:15;6.38;;;1.20;;
48849;SDS011;63210;53.370;6.770;2023-02-01T11:30:45;9.85;;;1.20;;
48849;SDS011;63210;53.370;6.770;2023-02-01T11:33:13;10.07;;;1.42;;
48849;SDS011;63210;53.370;6.770;2023-02-01T11:35:41;8.90;;;1.83;;
48849;SDS011;63210;53.370;6.770;2023-02-01T11:38:11;6.32;;;1.55;;
48849;SDS011;63210;53.370;6.770;2023-02-01T11:44:15;8.30;;;1.23;;
48849;SDS011;63210;53.370;6.770;2023-02-01T11:46:45;8.68;;;1.80;;
48849;SDS011;63210;53.370;6.770;2023-02-01T11:49:19;7.60;;;1.27;;
48849;SDS011;63210;53.370;6.770;2023-02-01T11:54:48;8.32;;;1.20;;
48849;SDS011;63210;53.370;6.770;2023-02-01T11:57:32;10.63;;;1.40;;
48849;SDS011;63210;53.370;6.770;2023-02-01T12:02:52;7.72;;;1.92;;
48849;SDS011;63210;53.370;6.770;2023-02-01T12:08:24;7.25;;;1.17;;
48849;SDS011;63210;53.370;6.770;2023-02-01T12:11:28;5.50;;;1.20;;
48849;SDS011;63210;53.370;6.770;2023-02-01T12:17:10;11.68;;;1.77;;
48849;SDS011;63210;53.370;6.770;2023-02-01T12:22:41;13.82;;;2.28;;
48849;SDS011;63210;53.370;6.770;2023-02-01T12:28:05;16.35;;;2.35;;
48849;SDS011;63210;53.370;6.770;2023-02-01T12:30:37;18.38;;;2.83;;
48849;SDS011;63210;53.370;6.770;2023-02-01T12:41:18;17.08;;;3.38;;
48849;SDS011;63210;53.370;6.770;2023-02-01T12:43:59;16.90;;;2.63;;
48849;SDS011;63210;53.370;6.770;2023-02-01T12:46:53;29.58;;;3.85;;
48849;SDS011;63210;53.370;6.770;2023-02-01T12:52:15;29.83;;;4.32;;
48849;SDS011;63210;53.370;6.770;2023-02-01T12:57:33;28.23;;;4.22;;
48849;SDS011;63210;53.370;6.770;2023-02-01T13:08:18;39.20;;;3.83;;
48849;SDS011;63210;53.370;6.770;2023-02-01T13:10:57;36.42;;;4.60;;
48849;SDS011;63210;53.370;6.770;2023-02-01T13:13:43;24.40;;;3.72;;
48849;SDS011;63210;53.370;6.770;2023-02-01T13:18:57;26.08;;;5.85;;
48849;SDS011;63210;53.370;6.770;2023-02-01T13:21:31;29.08;;;4.07;;
48849;SDS011;63210;53.370;6.770;2023-02-01T13:24:00;23.13;;;4.35;;
48849;SDS011;63210;53.370;6.770;2023-02-01T13:26:29;23.58;;;3.72;;
48849;SDS011;63210;53.370;6.770;2023-02-01T13:29:05;28.45;;;4.88;;
48849;SDS011;63210;53.370;6.770;2023-02-01T13:34:33;24.92;;;3.72;;
48849;SDS011;63210;53.370;6.770;2023-02-01T13:42:28;24.67;;;4.38;;
48849;SDS011;63210;53.370;6.770;2023-02-01T13:45:02;25.48;;;4.90;;
48849;SDS011;63210;53.370;6.770;2023-02-01T13:47:35;28.42;;;4.25;;
48849;SDS011;63210;53.370;6.770;2023-02-01T13:52:51;28.50;;;5.47;;
48849;SDS011;63210;53.370;6.770;2023-02-01T13:58:15;31.38;;;4.60;;
48849;SDS011;63210;53.370;6.770;2023-02-01T14:00:41;40.13;;;7.07;;
48849;SDS011;63210;53.370;6.770;2023-02-01T14:03:19;27.70;;;7.22;;
48849;SDS011;63210;53.370;6.770;2023-02-01T14:05:57;26.92;;;3.33;;
48849;SDS011;63210;53.370;6.770;2023-02-01T14:08:43;26.25;;;4.53;;
48849;SDS011;63210;53.370;6.770;2023-02-01T14:14:43;17.88;;;3.92;;
48849;SDS011;63210;53.370;6.770;2023-02-01T14:19:28;31.65;;;6.85;;
48849;SDS011;63210;53.370;6.770;2023-02-01T14:21:55;35.03;;;6.82;;
48849;SDS011;63210;53.370;6.770;2023-02-01T14:26:54;35.72;;;5.65;;
48849;SDS011;63210;53.370;6.770;2023-02-01T14:29:31;31.08;;;4.43;;
48849;SDS011;63210;53.370;6.770;2023-02-01T14:47:53;20.20;;;4.35;;
48849;SDS011;63210;53.370;6.770;2023-02-01T14:53:03;32.40;;;5.63;;
48849;SDS011;63210;53.370;6.770;2023-02-01T14:55:34;36.08;;;4.18;;
48849;SDS011;63210;53.370;6.770;2023-02-01T14:58:01;34.00;;;4.95;;
48849;SDS011;63210;53.370;6.770;2023-02-01T15:00:36;23.52;;;5.07;;
48849;SDS011;63210;53.370;6.770;2023-02-01T15:06:01;26.00;;;3.53;;
48849;SDS011;63210;53.370;6.770;2023-02-01T15:08:32;26.63;;;4.25;;
48849;SDS011;63210;53.370;6.770;2023-02-01T15:11:01;24.75;;;4.38;;
48849;SDS011;63210;53.370;6.770;2023-02-01T15:18:30;32.95;;;3.80;;
48849;SDS011;63210;53.370;6.770;2023-02-01T15:21:00;28.83;;;5.75;;
48849;SDS011;63210;53.370;6.770;2023-02-01T15:23:26;19.02;;;3.20;;
48849;SDS011;63210;53.370;6.770;2023-02-01T15:25:55;23.65;;;3.20;;
48849;SDS011;63210;53.370;6.770;2023-02-01T15:28:20;30.58;;;5.65;;
48849;SDS011;63210;53.370;6.770;2023-02-01T15:33:20;27.40;;;4.25;;
48849;SDS011;63210;53.370;6.770;2023-02-01T15:35:46;23.77;;;4.07;;
48849;SDS011;63210;53.370;6.770;2023-02-01T15:41:18;23.65;;;3.50;;
48849;SDS011;63210;53.370;6.770;2023-02-01T15:46:21;19.65;;;3.35;;
48849;SDS011;63210;53.370;6.770;2023-02-01T15:48:51;26.25;;;3.38;;
48849;SDS011;63210;53.370;6.770;2023-02-01T15:51:18;26.70;;;4.18;;
48849;SDS011;63210;53.370;6.770;2023-02-01T15:53:48;30.70;;;4.40;;
48849;SDS011;63210;53.370;6.770;2023-02-01T15:56:14;29.08;;;4.68;;
48849;SDS011;63210;53.370;6.770;2023-02-01T15:58:41;25.42;;;5.07;;
48849;SDS011;63210;53.370;6.770;2023-02-01T16:01:10;24.42;;;4.75;;
48849;SDS011;63210;53.370;6.770;2023-02-01T16:03:44;30.25;;;6.32;;
48849;SDS011;63210;53.370;6.770;2023-02-01T16:08:54;32.08;;;3.55;;
48849;SDS011;63210;53.370;6.770;2023-02-01T16:11:27;25.50;;;4.43;;
48849;SDS011;63210;53.370;6.770;2023-02-01T16:13:55;31.77;;;4.70;;
48849;SDS011;63210;53.370;6.770;2023-02-01T16:16:20;30.88;;;4.47;;
48849;SDS011;63210;53.370;6.770;2023-02-01T16:18:46;24.80;;;4.60;;
48849;SDS011;63210;53.370;6.770;2023-02-01T16:21:18;34.88;;;5.18;;
48849;SDS011;63210;53.370;6.770;2023-02-01T16:23:47;28.33;;;5.45;;
48849;SDS011;63210;53.370;6.770;2023-02-01T16:26:13;18.50;;;3.22;;
48849;SDS011;63210;53.370;6.770;2023-02-01T16:28:38;32.10;;;4.35;;
48849;SDS011;63210;53.370;6.770;2023-02-01T16:31:03;21.73;;;3.58;;
48849;SDS011;63210;53.370;6.770;2023-02-01T16:33:29;26.63;;;6.32;;
48849;SDS011;63210;53.370;6.770;2023-02-01T16:35:55;24.73;;;3.95;;
48849;SDS011;63210;53.370;6.770;2023-02-01T16:38:22;22.20;;;4.35;;
48849;SDS011;63210;53.370;6.770;2023-02-01T16:40:48;20.05;;;3.53;;
48849;SDS011;63210;53.370;6.770;2023-02-01T16:43:21;29.35;;;3.92;;
48849;SDS011;63210;53.370;6.770;2023-02-01T16:45:47;19.13;;;2.90;;
48849;SDS011;63210;53.370;6.770;2023-02-01T16:48:26;24.38;;;3.70;;
48849;SDS011;63210;53.370;6.770;2023-02-01T16:50:53;28.77;;;5.65;;
48849;SDS011;63210;53.370;6.770;2023-02-01T16:53:19;31.60;;;4.88;;
48849;SDS011;63210;53.370;6.770;2023-02-01T16:55:45;29.33;;;4.30;;
48849;SDS011;63210;53.370;6.770;2023-02-01T16:58:12;31.33;;;5.03;;
48849;SDS011;63210;53.370;6.770;2023-02-01T17:00:38;23.05;;;4.47;;
48849;SDS011;63210;53.370;6.770;2023-02-01T17:03:07;29.13;;;4.05;;
48849;SDS011;63210;53.370;6.770;2023-02-01T17:05:32;27.20;;;3.70;;
48849;SDS011;63210;53.370;6.770;2023-02-01T17:08:00;21.98;;;4.30;;
48849;SDS011;63210;53.370;6.770;2023-02-01T17:10:28;21.40;;;3.25;;
48849;SDS011;63210;53.370;6.770;2023-02-01T17:12:57;21.77;;;4.05;;
48849;SDS011;63210;53.370;6.770;2023-02-01T17:15:23;23.15;;;3.40;;
48849;SDS011;63210;53.370;6.770;2023-02-01T17:17:49;21.17;;;3.60;;
48849;SDS011;63210;53.370;6.770;2023-02-01T17:20:23;23.58;;;3.50;;
48849;SDS011;63210;53.370;6.770;2023-02-01T17:23:04;25.95;;;4.72;;
48849;SDS011;63210;53.370;6.770;2023-02-01T17:25:35;21.27;;;4.60;;
48849;SDS011;63210;53.370;6.770;2023-02-01T17:28:01;21.70;;;3.72;;